Time;durP1;ratioP1;P1;durP2;ratioP2;P2;SDS_P1;SDS_P2;PMS_P1;PMS_P2;Temp;Humidity;BMP_temperature;BMP_pressure;BME280_temperature;BME280_humidity;BME280_pressure;Samples;Min_cycle;Max_cycle;Signal;HPM_P1;HPM_P2
2024/05/08 00:00:15;;;;;;;;;;;;;;;;;;5482000;25;19935;-65
2024/05/08 00:02:41;;;;;;;;;;;;;;;;;;5480282;25;20252;-66
2024/05/08 00:05:06;;;;;;;;;;;;;;;;;;5481724;25;19931;-66
2024/05/08 00:07:31;;;;;;;;;;;;;;;;;;5481619;25;19928;-66
2024/05/08 00:09:56;;;;;;;;;;;;;;;;;;5452318;25;19943;-65
2024/05/08 00:12:21;;;;;;;;;;;;;;;;;;5464434;26;19939;-65
2024/05/08 00:14:47;;;;;;;;;;;;;;;;;;5468385;26;20301;-65
2024/05/08 00:17:12;;;;;;;;;;;;;;;;;;5480356;25;20452;-65
2024/05/08 00:19:37;;;;;;;;;;;;;;;;;;5481897;25;19935;-66
2024/05/08 00:22:02;;;;;;;;;;;;;;;;;;5482051;25;19964;-66
2024/05/08 00:24:27;;;;;;;;;;;;;;;;;;5480271;25;20367;-65
2024/05/08 00:26:53;;;;;;;;;;;;;;;;;;5466039;25;19928;-65
2024/05/08 00:29:18;;;;;;;;;;;;;;;;;;5444778;26;20353;-65
2024/05/08 00:31:43;;;;;;;;;;;;;;;;;;5443026;26;19928;-65
2024/05/08 00:34:08;;;;;;;;;;;;;;;;;;5444133;26;20261;-66
2024/05/08 00:36:34;;;;;;;;;;;;;;;;;;5457049;26;19937;-66
2024/05/08 00:38:59;;;;;;;;;;;;;;;;;;5458398;26;19997;-65
2024/05/08 00:41:24;;;;;;;;;;;;;;;;;;5459906;25;20018;-66
2024/05/08 00:43:49;;;;;;;;;;;;;;;;;;5438876;26;20833;-66
2024/05/08 00:46:14;;;;;;;;;;;;;;;;;;5462239;26;19928;-66
2024/05/08 00:48:39;;;;;;;;;;;;;;;;;;5465962;25;19928;-65
2024/05/08 00:51:04;;;;;;;;;;;;;;;;;;5480982;25;19939;-65
2024/05/08 00:53:29;;;;;;;;;;;;;;;;;;5480102;25;19928;-66
2024/05/08 00:55:54;;;;;;;;;;;;;;;;;;5481475;25;19971;-67
2024/05/08 00:58:20;;;;;;;;;;;;;;;;;;5476442;25;19936;-65
2024/05/08 01:00:45;;;;;;;;;;;;;;;;;;5471833;25;20373;-65
2024/05/08 01:03:10;;;;;;;;;;;;;;;;;;5480061;25;19928;-66
2024/05/08 01:05:35;;;;;;;;;;;;;;;;;;5480929;25;19928;-66
2024/05/08 01:08:00;;;;;;;;;;;;;;;;;;5479693;25;19936;-66
2024/05/08 01:10:25;;;;;;;;;;;;;;;;;;5443775;26;19972;-66
2024/05/08 01:12:51;;;;;;;;;;;;;;;;;;5456271;26;19931;-66
2024/05/08 01:15:16;;;;;;;;;;;;;;;;;;5476548;25;19996;-66
2024/05/08 01:17:44;;;;;;;;;;;;;;;;;;5455529;25;20289;-65
2024/05/08 01:20:09;;;;;;;;;;;;;;;;;;5476866;26;19928;-65
2024/05/08 01:22:34;;;;;;;;;;;;;;;;;;5481265;26;19928;-66
2024/05/08 01:25:00;;;;;;;;;;;;;;;;;;5480739;26;19932;-68
2024/05/08 01:27:25;;;;;;;;;;;;;;;;;;5480875;25;20000;-65
2024/05/08 01:29:50;;;;;;;;;;;;;;;;;;5480573;25;20382;-64
2024/05/08 01:32:15;;;;;;;;;;;;;;;;;;5479854;25;19928;-65
2024/05/08 01:34:40;;;;;;;;;;;;;;;;;;5464371;25;19939;-66
2024/05/08 01:37:05;;;;;;;;;;;;;;;;;;5447849;26;19944;-65
2024/05/08 01:39:30;;;;;;;;;;;;;;;;;;5436076;26;20367;-66
2024/05/08 01:41:55;;;;;;;;;;;;;;;;;;5469700;26;20082;-65
2024/05/08 01:44:21;;;;;;;;;;;;;;;;;;5479156;25;19950;-66
2024/05/08 01:46:46;;;;;;;;;;;;;;;;;;5479668;25;19936;-65
2024/05/08 01:49:11;;;;;;;;;;;;;;;;;;5468079;25;20362;-66
2024/05/08 01:51:36;;;;;;;;;;;;;;;;;;5483917;25;19934;-66
2024/05/08 01:54:01;;;;;;;;;;;;;;;;;;5478795;26;19995;-67
2024/05/08 01:56:26;;;;;;;;;;;;;;;;;;5479894;25;19940;-65
2024/05/08 01:58:51;;;;;;;;;;;;;;;;;;5480654;25;20157;-65
2024/05/08 02:01:16;;;;;;;;;;;;;;;;;;5476704;26;19972;-65
2024/05/08 02:03:41;;;;;;;;;;;;;;;;;;5480221;25;20371;-66
2024/05/08 02:06:06;;;;;;;;;;;;;;;;;;5479152;25;19928;-65
2024/05/08 02:08:31;;;;;;;;;;;;;;;;;;5451878;26;19960;-66
2024/05/08 02:10:57;;;;;;;;;;;;;;;;;;5477964;25;20485;-65
2024/05/08 02:13:23;;;;;;;;;;;;;;;;;;5478589;25;21281;-66
2024/05/08 02:15:48;;;;;;;;;;;;;;;;;;5479161;25;20264;-67
2024/05/08 02:18:14;;;;;;;;;;;;;;;;;;5445856;25;19928;-65
2024/05/08 02:20:39;;;;;;;;;;;;;;;;;;5452357;26;20453;-65
2024/05/08 02:23:04;;;;;;;;;;;;;;;;;;5478430;26;20419;-67
2024/05/08 02:25:29;;;;;;;;;;;;;;;;;;5472209;26;19928;-66
2024/05/08 02:27:54;;;;;;;;;;;;;;;;;;5477837;25;19928;-66
2024/05/08 02:30:19;;;;;;;;;;;;;;;;;;5463279;25;19946;-65
2024/05/08 02:32:45;;;;;;;;;;;;;;;;;;5470182;26;20517;-67
2024/05/08 02:35:10;;;;;;;;;;;;;;;;;;5476384;25;19928;-66
2024/05/08 02:37:35;;;;;;;;;;;;;;;;;;5467147;25;19927;-65
2024/05/08 02:40:00;;;;;;;;;;;;;;;;;;5461472;25;19929;-64
2024/05/08 02:42:25;;;;;;;;;;;;;;;;;;5471540;25;19998;-65
2024/05/08 02:44:50;;;;;;;;;;;;;;;;;;5442941;26;19928;-65
2024/05/08 02:47:15;;;;;;;;;;;;;;;;;;5442310;26;20354;-66
2024/05/08 02:49:40;;;;;;;;;;;;;;;;;;5466918;26;19935;-65
2024/05/08 02:52:05;;;;;;;;;;;;;;;;;;5477142;26;19935;-66
2024/05/08 02:54:30;;;;;;;;;;;;;;;;;;5449183;26;19936;-66
2024/05/08 02:56:55;;;;;;;;;;;;;;;;;;5466651;26;19940;-65
2024/05/08 02:59:21;;;;;;;;;;;;;;;;;;5470914;26;20394;-66
2024/05/08 03:01:46;;;;;;;;;;;;;;;;;;5476577;25;19928;-65
2024/05/08 03:04:11;;;;;;;;;;;;;;;;;;5477779;25;19957;-67
2024/05/08 03:06:36;;;;;;;;;;;;;;;;;;5473006;25;19932;-65
2024/05/08 03:09:01;;;;;;;;;;;;;;;;;;5474279;26;19928;-65
2024/05/08 03:11:26;;;;;;;;;;;;;;;;;;5463837;26;19960;-66
2024/05/08 03:13:51;;;;;;;;;;;;;;;;;;5478712;26;20365;-65
2024/05/08 03:16:16;;;;;;;;;;;;;;;;;;5477297;25;20000;-65
2024/05/08 03:18:41;;;;;;;;;;;;;;;;;;5478727;25;19928;-64
2024/05/08 03:21:06;;;;;;;;;;;;;;;;;;5483251;25;19932;-65
2024/05/08 03:23:31;;;;;;;;;;;;;;;;;;5468346;26;19928;-66
2024/05/08 03:25:56;;;;;;;;;;;;;;;;;;5475646;25;20376;-66
2024/05/08 03:28:22;;;;;;;;;;;;;;;;;;5479687;25;19932;-65
2024/05/08 03:30:47;;;;;;;;;;;;;;;;;;5482467;25;19944;-65
2024/05/08 03:33:12;;;;;;;;;;;;;;;;;;5470107;26;20330;-66
2024/05/08 03:35:37;;;;;;;;;;;;;;;;;;5461616;26;19931;-65
2024/05/08 03:38:02;;;;;;;;;;;;;;;;;;5487153;25;19943;-67
2024/05/08 03:40:27;;;;;;;;;;;;;;;;;;5473668;26;19940;-65
2024/05/08 03:42:53;;;;;;;;;;;;;;;;;;5482928;26;19935;-65
2024/05/08 03:45:18;;;;;;;;;;;;;;;;;;5469592;25;20269;-65
2024/05/08 03:47:43;;;;;;;;;;;;;;;;;;5460361;26;19985;-65
2024/05/08 03:50:08;;;;;;;;;;;;;;;;;;5476688;25;20264;-67
2024/05/08 03:52:33;;;;;;;;;;;;;;;;;;5482722;26;19936;-64
2024/05/08 03:54:58;;;;;;;;;;;;;;;;;;5482802;25;19928;-65
2024/05/08 03:57:23;;;;;;;;;;;;;;;;;;5480927;25;19928;-65
2024/05/08 03:59:48;;;;;;;;;;;;;;;;;;5485426;25;19964;-66
2024/05/08 04:02:13;;;;;;;;;;;;;;;;;;5480646;25;19927;-65
2024/05/08 04:04:39;;;;;;;;;;;;;;;;;;5482262;25;19927;-65
2024/05/08 04:07:04;;;;;;;;;;;;;;;;;;5481454;25;20392;-65
2024/05/08 04:09:29;;;;;;;;;;;;;;;;;;5480077;25;19935;-65
2024/05/08 04:11:54;;;;;;;;;;;;;;;;;;5482136;25;20326;-65
2024/05/08 04:14:19;;;;;;;;;;;;;;;;;;5480703;25;19935;-64
2024/05/08 04:16:44;;;;;;;;;;;;;;;;;;5481617;25;19928;-65
2024/05/08 04:19:09;;;;;;;;;;;;;;;;;;5480603;25;20242;-64
2024/05/08 04:21:34;;;;;;;;;;;;;;;;;;5486188;25;19931;-67
2024/05/08 04:23:59;;;;;;;;;;;;;;;;;;5481696;26;20254;-66
2024/05/08 04:26:24;;;;;;;;;;;;;;;;;;5480923;25;20511;-65
2024/05/08 04:28:50;;;;;;;;;;;;;;;;;;5480971;25;20253;-65
2024/05/08 04:31:15;;;;;;;;;;;;;;;;;;5481583;25;20314;-66
2024/05/08 04:33:40;;;;;;;;;;;;;;;;;;5481457;26;19935;-66
2024/05/08 04:36:05;;;;;;;;;;;;;;;;;;5480754;25;19935;-64
2024/05/08 04:38:30;;;;;;;;;;;;;;;;;;5440430;26;20265;-65
2024/05/08 04:40:55;;;;;;;;;;;;;;;;;;5435339;25;19932;-66
2024/05/08 04:43:20;;;;;;;;;;;;;;;;;;5448620;26;20369;-65
2024/05/08 04:45:45;;;;;;;;;;;;;;;;;;5481698;26;19952;-65
2024/05/08 04:48:10;;;;;;;;;;;;;;;;;;5480716;25;20384;-65
2024/05/08 04:50:35;;;;;;;;;;;;;;;;;;5470816;26;20595;-65
2024/05/08 04:53:01;;;;;;;;;;;;;;;;;;5462116;26;19928;-66
2024/05/08 04:55:26;;;;;;;;;;;;;;;;;;5472556;25;19932;-65
2024/05/08 04:57:51;;;;;;;;;;;;;;;;;;5471575;26;19935;-66
2024/05/08 05:00:16;;;;;;;;;;;;;;;;;;5478962;25;19938;-66
2024/05/08 05:02:41;;;;;;;;;;;;;;;;;;5480806;26;20362;-66
2024/05/08 05:05:06;;;;;;;;;;;;;;;;;;5481215;25;20368;-65
2024/05/08 05:07:31;;;;;;;;;;;;;;;;;;5461043;26;19993;-66
2024/05/08 05:09:56;;;;;;;;;;;;;;;;;;5469656;26;19977;-66
2024/05/08 05:12:21;;;;;;;;;;;;;;;;;;5464997;25;19944;-65
2024/05/08 05:14:46;;;;;;;;;;;;;;;;;;5481425;25;20304;-66
2024/05/08 05:17:11;;;;;;;;;;;;;;;;;;5480897;25;20365;-65
2024/05/08 05:19:36;;;;;;;;;;;;;;;;;;5479124;25;19928;-65
2024/05/08 05:22:02;;;;;;;;;;;;;;;;;;5487261;25;19928;-65
2024/05/08 05:24:27;;;;;;;;;;;;;;;;;;5480195;25;19956;-67
2024/05/08 05:26:52;;;;;;;;;;;;;;;;;;5460068;25;19928;-66
2024/05/08 05:29:17;;;;;;;;;;;;;;;;;;5461927;25;19935;-65
2024/05/08 05:34:07;;;;;;;;;;;;;;;;;;5480509;25;19928;-66
2024/05/08 05:36:32;;;;;;;;;;;;;;;;;;5474088;26;19940;-66
2024/05/08 05:38:57;;;;;;;;;;;;;;;;;;5475585;25;19927;-67
2024/05/08 05:41:23;;;;;;;;;;;;;;;;;;5476261;25;19932;-67
2024/05/08 05:46:32;;;;;;;;;;;;;;;;;;5475555;25;20330;-65
2024/05/08 05:48:57;;;;;;;;;;;;;;;;;;5459076;25;20373;-66
2024/05/08 05:51:23;;;;;;;;;;;;;;;;;;5472715;26;19969;-66
2024/05/08 05:53:48;;;;;;;;;;;;;;;;;;5479467;25;19936;-65
2024/05/08 05:56:13;;;;;;;;;;;;;;;;;;5480329;25;19936;-65
2024/05/08 05:58:38;;;;;;;;;;;;;;;;;;5475838;25;20000;-65
2024/05/08 06:01:03;;;;;;;;;;;;;;;;;;5461480;26;19928;-66
2024/05/08 06:03:28;;;;;;;;;;;;;;;;;;5479461;25;20386;-65
2024/05/08 06:05:53;;;;;;;;;;;;;;;;;;5459115;25;19935;-65
2024/05/08 06:08:18;;;;;;;;;;;;;;;;;;5459727;25;19928;-65
2024/05/08 06:10:43;;;;;;;;;;;;;;;;;;5469598;25;20369;-65
2024/05/08 06:13:08;;;;;;;;;;;;;;;;;;5477691;26;20333;-67
2024/05/08 06:15:34;;;;;;;;;;;;;;;;;;5459639;25;19956;-66
2024/05/08 06:17:59;;;;;;;;;;;;;;;;;;5472147;25;20341;-67
2024/05/08 06:20:24;;;;;;;;;;;;;;;;;;5469312;25;19928;-65
2024/05/08 06:22:49;;;;;;;;;;;;;;;;;;5464353;26;19964;-65
2024/05/08 06:25:14;;;;;;;;;;;;;;;;;;5487775;25;19928;-65
2024/05/08 06:27:39;;;;;;;;;;;;;;;;;;5477800;25;19939;-65
2024/05/08 06:30:04;;;;;;;;;;;;;;;;;;5473220;25;19928;-66
2024/05/08 06:32:29;;;;;;;;;;;;;;;;;;5475673;25;19936;-66
2024/05/08 06:34:55;;;;;;;;;;;;;;;;;;5479964;25;19928;-66
2024/05/08 06:37:20;;;;;;;;;;;;;;;;;;5476382;25;20265;-67
2024/05/08 06:39:45;;;;;;;;;;;;;;;;;;5479687;25;19935;-66
2024/05/08 06:42:10;;;;;;;;;;;;;;;;;;5466743;25;19937;-67
2024/05/08 06:44:35;;;;;;;;;;;;;;;;;;5478629;25;20004;-67
2024/05/08 06:47:00;;;;;;;;;;;;;;;;;;5478907;25;20519;-66
2024/05/08 06:49:25;;;;;;;;;;;;;;;;;;5473914;25;19935;-67
2024/05/08 06:51:50;;;;;;;;;;;;;;;;;;5480099;25;19996;-67
2024/05/08 06:54:15;;;;;;;;;;;;;;;;;;5478916;25;19995;-66
2024/05/08 06:56:41;;;;;;;;;;;;;;;;;;5479643;25;19935;-66
2024/05/08 06:59:06;;;;;;;;;;;;;;;;;;5473169;25;19928;-67
2024/05/08 07:01:31;;;;;;;;;;;;;;;;;;5450195;26;20005;-67
2024/05/08 07:03:56;;;;;;;;;;;;;;;;;;5464366;25;20272;-66
2024/05/08 07:06:21;;;;;;;;;;;;;;;;;;5478671;25;19932;-66
2024/05/08 07:08:46;;;;;;;;;;;;;;;;;;5468207;25;19946;-66
2024/05/08 07:11:11;;;;;;;;;;;;;;;;;;5480199;25;19939;-65
2024/05/08 07:13:36;;;;;;;;;;;;;;;;;;5478825;25;19960;-66
2024/05/08 07:16:01;;;;;;;;;;;;;;;;;;5468418;25;19936;-66
2024/05/08 07:18:26;;;;;;;;;;;;;;;;;;5459605;25;19928;-67
2024/05/08 07:20:52;;;;;;;;;;;;;;;;;;5476119;25;19996;-66
2024/05/08 07:23:17;;;;;;;;;;;;;;;;;;5472105;26;20265;-66
2024/05/08 07:25:42;;;;;;;;;;;;;;;;;;5477315;25;19996;-66
2024/05/08 07:28:07;;;;;;;;;;;;;;;;;;5470581;25;19935;-67
2024/05/08 07:30:32;;;;;;;;;;;;;;;;;;5457979;26;20370;-66
2024/05/08 07:32:57;;;;;;;;;;;;;;;;;;5472342;25;20261;-65
2024/05/08 07:35:22;;;;;;;;;;;;;;;;;;5463515;25;20446;-66
2024/05/08 07:37:47;;;;;;;;;;;;;;;;;;5441334;26;19935;-66
2024/05/08 07:40:12;;;;;;;;;;;;;;;;;;5441201;26;20239;-67
2024/05/08 07:42:37;;;;;;;;;;;;;;;;;;5440916;26;19936;-67
2024/05/08 07:45:03;;;;;;;;;;;;;;;;;;5451490;26;19936;-67
2024/05/08 07:47:30;;;;;;;;;;;;;;;;;;5457223;26;19929;-66
2024/05/08 07:49:55;;;;;;;;;;;;;;;;;;5475071;26;19928;-66
2024/05/08 07:52:20;;;;;;;;;;;;;;;;;;5471609;25;19940;-66
2024/05/08 07:54:45;;;;;;;;;;;;;;;;;;5477126;25;19936;-65
2024/05/08 07:57:10;;;;;;;;;;;;;;;;;;5467782;26;19928;-65
2024/05/08 07:59:36;;;;;;;;;;;;;;;;;;5455653;25;19928;-66
2024/05/08 08:02:01;;;;;;;;;;;;;;;;;;5467120;25;19996;-65
2024/05/08 08:04:26;;;;;;;;;;;;;;;;;;5472947;26;19996;-66
2024/05/08 08:06:51;;;;;;;;;;;;;;;;;;5466277;26;19978;-65
2024/05/08 08:09:16;;;;;;;;;;;;;;;;;;5455506;26;20172;-66
2024/05/08 08:11:41;;;;;;;;;;;;;;;;;;5476383;25;20454;-66
2024/05/08 08:14:06;;;;;;;;;;;;;;;;;;5471670;26;19996;-67
2024/05/08 08:16:31;;;;;;;;;;;;;;;;;;5477034;25;19984;-65
2024/05/08 08:18:56;;;;;;;;;;;;;;;;;;5464425;25;20258;-66
2024/05/08 08:21:21;;;;;;;;;;;;;;;;;;5467887;25;19927;-66
2024/05/08 08:23:46;;;;;;;;;;;;;;;;;;5454767;25;20328;-65
2024/05/08 08:26:12;;;;;;;;;;;;;;;;;;5445893;26;19928;-66
2024/05/08 08:28:37;;;;;;;;;;;;;;;;;;5475599;26;20016;-66
2024/05/08 08:31:02;;;;;;;;;;;;;;;;;;5478692;26;19943;-65
2024/05/08 08:33:27;;;;;;;;;;;;;;;;;;5483539;26;19936;-66
2024/05/08 08:35:52;;;;;;;;;;;;;;;;;;5489865;26;19927;-65
2024/05/08 08:38:17;;;;;;;;;;;;;;;;;;5489752;25;19934;-66
2024/05/08 08:40:43;;;;;;;;;;;;;;;;;;5461626;26;19928;-66
2024/05/08 08:43:08;;;;;;;;;;;;;;;;;;5480192;26;19928;-65
2024/05/08 08:45:33;;;;;;;;;;;;;;;;;;5473312;26;19960;-66
2024/05/08 08:47:58;;;;;;;;;;;;;;;;;;5481303;26;19938;-66
2024/05/08 08:50:23;;;;;;;;;;;;;;;;;;5475857;26;19927;-65
2024/05/08 08:52:51;;;;;;;;;;;;;;;;;;5468413;25;19939;-66
2024/05/08 08:55:16;;;;;;;;;;;;;;;;;;5466900;26;20513;-66
2024/05/08 08:57:41;;;;;;;;;;;;;;;;;;5480685;25;20282;-65
2024/05/08 09:00:06;;;;;;;;;;;;;;;;;;5492449;25;20011;-66
2024/05/08 09:02:34;;;;;;;;;;;;;;;;;;5479429;25;19928;-65
2024/05/08 09:04:59;;;;;;;;;;;;;;;;;;5468228;25;19939;-66
2024/05/08 09:07:25;;;;;;;;;;;;;;;;;;5478820;26;19931;-65
2024/05/08 09:09:52;;;;;;;;;;;;;;;;;;5457133;25;19935;-65
2024/05/08 09:12:17;;;;;;;;;;;;;;;;;;5468303;25;19940;-65
2024/05/08 09:14:42;;;;;;;;;;;;;;;;;;5464761;26;19936;-65
2024/05/08 09:17:07;;;;;;;;;;;;;;;;;;5493705;25;19928;-65
2024/05/08 09:19:32;;;;;;;;;;;;;;;;;;5515727;25;19939;-66
2024/05/08 09:21:57;;;;;;;;;;;;;;;;;;5485471;25;20008;-67
2024/05/08 09:24:22;;;;;;;;;;;;;;;;;;5460158;26;20361;-65
2024/05/08 09:26:47;;;;;;;;;;;;;;;;;;5467492;25;20364;-65
2024/05/08 09:29:12;;;;;;;;;;;;;;;;;;5477289;25;19964;-65
2024/05/08 09:31:37;;;;;;;;;;;;;;;;;;5481622;26;19940;-67
2024/05/08 09:34:03;;;;;;;;;;;;;;;;;;5468256;25;20333;-65
2024/05/08 09:36:28;;;;;;;;;;;;;;;;;;5482827;25;19935;-66
2024/05/08 09:38:53;;;;;;;;;;;;;;;;;;5460246;26;19932;-65
2024/05/08 09:41:18;;;;;;;;;;;;;;;;;;5463334;26;20276;-65
2024/05/08 09:43:43;;;;;;;;;;;;;;;;;;5488941;25;19955;-66
2024/05/08 09:46:08;;;;;;;;;;;;;;;;;;5478216;25;19927;-65
2024/05/08 09:48:33;;;;;;;;;;;;;;;;;;5489628;25;19969;-66
2024/05/08 09:50:58;;;;;;;;;;;;;;;;;;5502158;25;19942;-66
2024/05/08 09:53:23;;;;;;;;;;;;;;;;;;5516474;25;20249;-67
2024/05/08 09:55:49;;;;;;;;;;;;;;;;;;5516838;25;19935;-67
2024/05/08 09:58:14;;;;;;;;;;;;;;;;;;5506935;25;19997;-66
2024/05/08 10:00:39;;;;;;;;;;;;;;;;;;5516142;25;19927;-66
2024/05/08 10:03:04;;;;;;;;;;;;;;;;;;5516295;25;19935;-67
2024/05/08 10:05:30;;;;;;;;;;;;;;;;;;5516916;25;19935;-66
2024/05/08 10:07:55;;;;;;;;;;;;;;;;;;5494624;26;19977;-66
2024/05/08 10:10:20;;;;;;;;;;;;;;;;;;5482721;25;20047;-68
2024/05/08 10:12:45;;;;;;;;;;;;;;;;;;5516674;25;19928;-67
2024/05/08 10:15:10;;;;;;;;;;;;;;;;;;5486672;26;19934;-66
2024/05/08 10:17:35;;;;;;;;;;;;;;;;;;5499810;25;19935;-66
2024/05/08 10:20:00;;;;;;;;;;;;;;;;;;5480366;26;20270;-67
2024/05/08 10:22:27;;;;;;;;;;;;;;;;;;5473782;25;19943;-67
2024/05/08 10:24:52;;;;;;;;;;;;;;;;;;5479764;26;19928;-67
2024/05/08 10:27:17;;;;;;;;;;;;;;;;;;5516634;25;19928;-66
2024/05/08 10:29:42;;;;;;;;;;;;;;;;;;5495794;25;20293;-66
2024/05/08 10:32:07;;;;;;;;;;;;;;;;;;5479281;25;19928;-67
2024/05/08 10:34:32;;;;;;;;;;;;;;;;;;5493734;25;19939;-66
2024/05/08 10:36:58;;;;;;;;;;;;;;;;;;5506431;25;19931;-67
2024/05/08 10:39:23;;;;;;;;;;;;;;;;;;5516158;25;19955;-66
2024/05/08 10:41:48;;;;;;;;;;;;;;;;;;5494351;25;19996;-67
2024/05/08 10:44:13;;;;;;;;;;;;;;;;;;5500539;25;20456;-66
2024/05/08 10:46:38;;;;;;;;;;;;;;;;;;5515565;25;19927;-67
2024/05/08 10:49:03;;;;;;;;;;;;;;;;;;5515976;25;19931;-67
2024/05/08 10:51:28;;;;;;;;;;;;;;;;;;5507989;25;19935;-67
2024/05/08 10:53:53;;;;;;;;;;;;;;;;;;5499006;25;20280;-67
2024/05/08 10:56:18;;;;;;;;;;;;;;;;;;5500113;25;20361;-66
2024/05/08 10:58:44;;;;;;;;;;;;;;;;;;5483399;25;19927;-68
2024/05/08 11:01:09;;;;;;;;;;;;;;;;;;5494277;25;19931;-66
2024/05/08 11:03:34;;;;;;;;;;;;;;;;;;5492175;26;20385;-66
2024/05/08 11:05:59;;;;;;;;;;;;;;;;;;5514913;25;19936;-67
2024/05/08 11:08:25;;;;;;;;;;;;;;;;;;5485000;25;19995;-67
2024/05/08 11:10:50;;;;;;;;;;;;;;;;;;5496819;25;19974;-66
2024/05/08 11:13:15;;;;;;;;;;;;;;;;;;5493886;25;19928;-66
2024/05/08 11:15:40;;;;;;;;;;;;;;;;;;5494483;25;19984;-67
2024/05/08 11:18:05;;;;;;;;;;;;;;;;;;5500226;25;20365;-66
2024/05/08 11:20:31;;;;;;;;;;;;;;;;;;5498676;26;20317;-66
2024/05/08 11:22:56;;;;;;;;;;;;;;;;;;5503755;25;20065;-66
2024/05/08 11:25:24;;;;;;;;;;;;;;;;;;5504915;25;19933;-68
2024/05/08 11:27:49;;;;;;;;;;;;;;;;;;5515234;25;19927;-66
2024/05/08 11:30:14;;;;;;;;;;;;;;;;;;5480949;25;19973;-66
2024/05/08 11:32:39;;;;;;;;;;;;;;;;;;5488823;25;19928;-66
2024/05/08 11:35:04;;;;;;;;;;;;;;;;;;5467393;26;19933;-67
2024/05/08 11:37:29;;;;;;;;;;;;;;;;;;5486325;25;19927;-66
2024/05/08 11:39:54;;;;;;;;;;;;;;;;;;5466094;25;19939;-67
2024/05/08 11:42:19;;;;;;;;;;;;;;;;;;5438843;26;19960;-69
2024/05/08 11:44:45;;;;;;;;;;;;;;;;;;5453137;26;20265;-67
2024/05/08 11:47:10;;;;;;;;;;;;;;;;;;5463392;26;19936;-67
2024/05/08 11:49:35;;;;;;;;;;;;;;;;;;5458814;25;20301;-68
2024/05/08 11:52:00;;;;;;;;;;;;;;;;;;5473995;26;19935;-66
2024/05/08 11:54:25;;;;;;;;;;;;;;;;;;5492532;25;20197;-68
2024/05/08 11:56:50;;;;;;;;;;;;;;;;;;5477774;26;20260;-66
2024/05/08 11:59:16;;;;;;;;;;;;;;;;;;5457927;26;19936;-67
2024/05/08 12:01:41;;;;;;;;;;;;;;;;;;5487119;25;19939;-66
2024/05/08 12:04:06;;;;;;;;;;;;;;;;;;5474439;26;19960;-66
2024/05/08 12:06:31;;;;;;;;;;;;;;;;;;5444309;26;19936;-66
2024/05/08 12:08:56;;;;;;;;;;;;;;;;;;5453813;26;19932;-67
2024/05/08 12:11:21;;;;;;;;;;;;;;;;;;5469830;26;19955;-67
2024/05/08 12:13:46;;;;;;;;;;;;;;;;;;5454064;26;20269;-67
2024/05/08 12:16:12;;;;;;;;;;;;;;;;;;5478235;25;19936;-66
2024/05/08 12:18:37;;;;;;;;;;;;;;;;;;5427856;26;19985;-67
2024/05/08 12:21:03;;;;;;;;;;;;;;;;;;5467874;26;19947;-66
2024/05/08 12:23:28;;;;;;;;;;;;;;;;;;5467841;26;20057;-66
2024/05/08 12:25:53;;;;;;;;;;;;;;;;;;5488880;25;20245;-68
2024/05/08 12:28:18;;;;;;;;;;;;;;;;;;5451651;26;19933;-67
2024/05/08 12:30:44;;;;;;;;;;;;;;;;;;5447951;26;19963;-66
2024/05/08 12:33:09;;;;;;;;;;;;;;;;;;5466384;26;20494;-66
2024/05/08 12:35:34;;;;;;;;;;;;;;;;;;5457866;26;20269;-66
2024/05/08 12:37:59;;;;;;;;;;;;;;;;;;5475334;25;20307;-66
2024/05/08 12:40:29;;;;;;;;;;;;;;;;;;5476586;25;19927;-67
2024/05/08 12:42:55;;;;;;;;;;;;;;;;;;5486755;26;19940;-67
2024/05/08 12:45:20;;;;;;;;;;;;;;;;;;5473609;25;19935;-66
2024/05/08 12:47:45;;;;;;;;;;;;;;;;;;5474181;26;19963;-67
2024/05/08 12:50:10;;;;;;;;;;;;;;;;;;5479264;25;19928;-66
2024/05/08 12:52:35;;;;;;;;;;;;;;;;;;5483137;25;19931;-67
2024/05/08 12:55:01;;;;;;;;;;;;;;;;;;5477545;25;19936;-67
2024/05/08 12:57:26;;;;;;;;;;;;;;;;;;5493511;25;19935;-67
2024/05/08 12:59:51;;;;;;;;;;;;;;;;;;5494097;25;19932;-68
2024/05/08 13:02:16;;;;;;;;;;;;;;;;;;5489301;25;19955;-67
2024/05/08 13:04:41;;;;;;;;;;;;;;;;;;5504147;25;19934;-68
2024/05/08 13:07:06;;;;;;;;;;;;;;;;;;5502065;25;19927;-67
2024/05/08 13:09:31;;;;;;;;;;;;;;;;;;5509559;25;19935;-67
2024/05/08 13:11:56;;;;;;;;;;;;;;;;;;5514487;25;20394;-67
2024/05/08 13:14:22;;;;;;;;;;;;;;;;;;5502539;25;19943;-67
2024/05/08 13:16:47;;;;;;;;;;;;;;;;;;5517275;25;19936;-67
2024/05/08 13:19:13;;;;;;;;;;;;;;;;;;5517381;25;19961;-67
2024/05/08 13:21:38;;;;;;;;;;;;;;;;;;5507982;25;19996;-67
2024/05/08 13:24:03;;;;;;;;;;;;;;;;;;5483689;25;20330;-67
2024/05/08 13:26:28;;;;;;;;;;;;;;;;;;5495945;25;19932;-68
2024/05/08 13:28:53;;;;;;;;;;;;;;;;;;5497197;25;20246;-67
2024/05/08 13:31:19;;;;;;;;;;;;;;;;;;5501216;26;19927;-68
2024/05/08 13:33:44;;;;;;;;;;;;;;;;;;5504693;25;20245;-68
2024/05/08 13:36:09;;;;;;;;;;;;;;;;;;5492037;25;19976;-67
2024/05/08 13:38:34;;;;;;;;;;;;;;;;;;5496036;25;19932;-68
2024/05/08 13:40:59;;;;;;;;;;;;;;;;;;5507525;25;20423;-67
2024/05/08 13:43:24;;;;;;;;;;;;;;;;;;5504597;26;19940;-68
2024/05/08 13:45:49;;;;;;;;;;;;;;;;;;5455631;25;19929;-67
2024/05/08 13:48:15;;;;;;;;;;;;;;;;;;5473157;25;20380;-67
2024/05/08 13:50:40;;;;;;;;;;;;;;;;;;5444193;26;19928;-66
2024/05/08 13:53:05;;;;;;;;;;;;;;;;;;5462932;25;20033;-66
2024/05/08 13:55:30;;;;;;;;;;;;;;;;;;5466167;26;19944;-67
2024/05/08 13:57:55;;;;;;;;;;;;;;;;;;5479904;25;19932;-66
2024/05/08 14:00:20;;;;;;;;;;;;;;;;;;5479719;25;20350;-67
2024/05/08 14:02:45;;;;;;;;;;;;;;;;;;5490932;26;19939;-66
2024/05/08 14:05:10;;;;;;;;;;;;;;;;;;5497980;25;19943;-67
2024/05/08 14:07:35;;;;;;;;;;;;;;;;;;5505866;25;20267;-66
2024/05/08 14:10:01;;;;;;;;;;;;;;;;;;5504539;25;20514;-67
2024/05/08 14:12:26;;;;;;;;;;;;;;;;;;5511714;26;19939;-66
2024/05/08 14:14:51;;;;;;;;;;;;;;;;;;5478403;25;19977;-68
2024/05/08 14:17:16;;;;;;;;;;;;;;;;;;5503847;25;19960;-65
2024/05/08 14:19:41;;;;;;;;;;;;;;;;;;5501751;25;20357;-66
2024/05/08 14:22:06;;;;;;;;;;;;;;;;;;5496926;25;19927;-65
2024/05/08 14:24:31;;;;;;;;;;;;;;;;;;5473017;25;19928;-65
2024/05/08 14:26:56;;;;;;;;;;;;;;;;;;5445814;26;20261;-65
2024/05/08 14:29:22;;;;;;;;;;;;;;;;;;5500471;25;19928;-66
2024/05/08 14:31:47;;;;;;;;;;;;;;;;;;5489173;26;19928;-66
2024/05/08 14:34:12;;;;;;;;;;;;;;;;;;5475212;26;19977;-66
2024/05/08 14:36:37;;;;;;;;;;;;;;;;;;5451132;26;19956;-65
2024/05/08 14:39:02;;;;;;;;;;;;;;;;;;5442119;26;20358;-65
2024/05/08 14:41:28;;;;;;;;;;;;;;;;;;5443880;26;19928;-66
2024/05/08 14:43:53;;;;;;;;;;;;;;;;;;5415131;26;19929;-67
2024/05/08 14:46:18;;;;;;;;;;;;;;;;;;5421552;26;19949;-65
2024/05/08 14:48:43;;;;;;;;;;;;;;;;;;5421750;26;19929;-65
2024/05/08 14:51:08;;;;;;;;;;;;;;;;;;5446623;26;20264;-66
2024/05/08 14:53:33;;;;;;;;;;;;;;;;;;5480592;25;20260;-65
2024/05/08 14:55:58;;;;;;;;;;;;;;;;;;5480205;25;19963;-66
2024/05/08 14:58:23;;;;;;;;;;;;;;;;;;5485240;25;19927;-65
2024/05/08 15:00:48;;;;;;;;;;;;;;;;;;5495675;25;19927;-67
2024/05/08 15:03:19;;;;;;;;;;;;;;;;;;5493555;25;19936;-66
2024/05/08 15:05:45;;;;;;;;;;;;;;;;;;5494633;25;20347;-66
2024/05/08 15:08:10;;;;;;;;;;;;;;;;;;5497417;25;20376;-65
2024/05/08 15:10:35;;;;;;;;;;;;;;;;;;5470580;26;19948;-64
2024/05/08 15:13:00;;;;;;;;;;;;;;;;;;5483599;25;19964;-65
2024/05/08 15:15:25;;;;;;;;;;;;;;;;;;5480215;25;19938;-65
2024/05/08 15:17:50;;;;;;;;;;;;;;;;;;5477104;25;19927;-65
2024/05/08 15:20:15;;;;;;;;;;;;;;;;;;5466922;25;20349;-65
2024/05/08 15:22:40;;;;;;;;;;;;;;;;;;5469373;25;19935;-65
2024/05/08 15:25:05;;;;;;;;;;;;;;;;;;5472403;25;19929;-65
2024/05/08 15:27:30;;;;;;;;;;;;;;;;;;5478963;25;19935;-65
2024/05/08 15:29:55;;;;;;;;;;;;;;;;;;5480672;25;19976;-65
2024/05/08 15:32:21;;;;;;;;;;;;;;;;;;5472151;25;19936;-65
2024/05/08 15:34:46;;;;;;;;;;;;;;;;;;5460186;25;19976;-65
2024/05/08 15:37:11;;;;;;;;;;;;;;;;;;5461337;25;19929;-65
2024/05/08 15:39:36;;;;;;;;;;;;;;;;;;5490570;25;19934;-65
2024/05/08 15:42:01;;;;;;;;;;;;;;;;;;5492956;25;19927;-65
2024/05/08 15:44:26;;;;;;;;;;;;;;;;;;5478179;25;20250;-65
2024/05/08 15:46:51;;;;;;;;;;;;;;;;;;5472334;25;19929;-65
2024/05/08 15:49:18;;;;;;;;;;;;;;;;;;5453426;25;19936;-66
2024/05/08 15:51:44;;;;;;;;;;;;;;;;;;5450516;26;19971;-65
2024/05/08 15:54:09;;;;;;;;;;;;;;;;;;5469344;25;19944;-66
2024/05/08 15:56:34;;;;;;;;;;;;;;;;;;5481268;25;20477;-65
2024/05/08 15:58:59;;;;;;;;;;;;;;;;;;5490168;25;20544;-65
2024/05/08 16:01:24;;;;;;;;;;;;;;;;;;5466838;25;19936;-65
2024/05/08 16:03:49;;;;;;;;;;;;;;;;;;5497400;25;19943;-65
2024/05/08 16:06:14;;;;;;;;;;;;;;;;;;5480558;25;19978;-65
2024/05/08 16:08:39;;;;;;;;;;;;;;;;;;5489836;25;20002;-65
2024/05/08 16:11:04;;;;;;;;;;;;;;;;;;5477279;25;19935;-65
2024/05/08 16:13:29;;;;;;;;;;;;;;;;;;5461914;25;19928;-64
2024/05/08 16:15:54;;;;;;;;;;;;;;;;;;5470442;25;19960;-64
2024/05/08 16:18:20;;;;;;;;;;;;;;;;;;5483642;25;20508;-64
2024/05/08 16:20:45;;;;;;;;;;;;;;;;;;5465681;25;19928;-64
2024/05/08 16:23:10;;;;;;;;;;;;;;;;;;5472047;25;19936;-64
2024/05/08 16:25:39;;;;;;;;;;;;;;;;;;5489289;25;19961;-64
2024/05/08 16:28:04;;;;;;;;;;;;;;;;;;5494887;25;19934;-64
2024/05/08 16:30:29;;;;;;;;;;;;;;;;;;5466341;26;19927;-64
2024/05/08 16:32:55;;;;;;;;;;;;;;;;;;5483691;25;19976;-65
2024/05/08 16:35:20;;;;;;;;;;;;;;;;;;5474240;25;19935;-64